sensor_id;sensor_type;location;lat;lon;timestamp;temperature;humidity
580;DHT22;276;48.392;9.950;2023-04-15T00:01:05;9.20;97.10
580;DHT22;276;48.392;9.950;2023-04-15T00:03:34;9.20;97.10
580;DHT22;276;48.392;9.950;2023-04-15T00:06:02;9.20;97.20
580;DHT22;276;48.392;9.950;2023-04-15T00:08:30;9.20;97.20
580;DHT22;276;48.392;9.950;2023-04-15T00:10:56;9.20;97.20
580;DHT22;276;48.392;9.950;2023-04-15T00:13:26;9.20;97.20
580;DHT22;276;48.392;9.950;2023-04-15T00:15:52;9.20;97.40
580;DHT22;276;48.392;9.950;2023-04-15T00:18:18;9.10;97.30
580;DHT22;276;48.392;9.950;2023-04-15T00:20:43;9.10;97.40
580;DHT22;276;48.392;9.950;2023-04-15T00:23:09;9.10;97.40
580;DHT22;276;48.392;9.950;2023-04-15T00:25:34;9.10;97.40
580;DHT22;276;48.392;9.950;2023-04-15T00:28:00;9.20;97.40
580;DHT22;276;48.392;9.950;2023-04-15T00:30:30;9.10;97.30
580;DHT22;276;48.392;9.950;2023-04-15T00:32:56;9.10;97.50
580;DHT22;276;48.392;9.950;2023-04-15T00:35:24;9.10;97.60
580;DHT22;276;48.392;9.950;2023-04-15T00:37:50;9.10;97.70
580;DHT22;276;48.392;9.950;2023-04-15T00:40:17;9.10;97.70
580;DHT22;276;48.392;9.950;2023-04-15T00:42:46;9.10;97.70
580;DHT22;276;48.392;9.950;2023-04-15T00:45:14;9.00;97.70
580;DHT22;276;48.392;9.950;2023-04-15T00:47:43;9.10;97.80
580;DHT22;276;48.392;9.950;2023-04-15T00:50:09;9.00;97.80
580;DHT22;276;48.392;9.950;2023-04-15T00:52:35;9.10;97.80
580;DHT22;276;48.392;9.950;2023-04-15T00:55:02;9.10;97.80
580;DHT22;276;48.392;9.950;2023-04-15T00:57:30;9.10;97.90
580;DHT22;276;48.392;9.950;2023-04-15T00:59:59;9.00;97.80
580;DHT22;276;48.392;9.950;2023-04-15T01:02:32;9.00;97.90
580;DHT22;276;48.392;9.950;2023-04-15T01:04:58;9.00;98.00
580;DHT22;276;48.392;9.950;2023-04-15T01:07:24;9.00;98.10
580;DHT22;276;48.392;9.950;2023-04-15T01:09:49;9.00;98.10
580;DHT22;276;48.392;9.950;2023-04-15T01:12:15;9.00;98.10
580;DHT22;276;48.392;9.950;2023-04-15T01:14:41;9.00;98.10
580;DHT22;276;48.392;9.950;2023-04-15T01:17:07;9.00;98.00
580;DHT22;276;48.392;9.950;2023-04-15T01:19:33;9.00;98.00
580;DHT22;276;48.392;9.950;2023-04-15T01:21:58;9.00;98.00
580;DHT22;276;48.392;9.950;2023-04-15T01:24:26;9.00;98.00
580;DHT22;276;48.392;9.950;2023-04-15T01:26:55;8.90;98.00
580;DHT22;276;48.392;9.950;2023-04-15T01:29:20;8.90;98.10
580;DHT22;276;48.392;9.950;2023-04-15T01:31:53;8.90;98.10
580;DHT22;276;48.392;9.950;2023-04-15T01:34:20;8.90;98.20
580;DHT22;276;48.392;9.950;2023-04-15T01:36:52;9.00;98.10
580;DHT22;276;48.392;9.950;2023-04-15T01:39:17;8.90;98.10
580;DHT22;276;48.392;9.950;2023-04-15T01:41:43;8.90;98.00
580;DHT22;276;48.392;9.950;2023-04-15T01:44:11;8.90;98.00
580;DHT22;276;48.392;9.950;2023-04-15T01:46:37;8.90;98.00
580;DHT22;276;48.392;9.950;2023-04-15T01:49:02;8.90;98.00
580;DHT22;276;48.392;9.950;2023-04-15T01:51:31;8.90;98.00
580;DHT22;276;48.392;9.950;2023-04-15T01:53:57;8.80;97.90
580;DHT22;276;48.392;9.950;2023-04-15T01:56:29;8.80;98.00
580;DHT22;276;48.392;9.950;2023-04-15T01:58:55;8.80;98.00
580;DHT22;276;48.392;9.950;2023-04-15T02:01:23;8.80;98.00
580;DHT22;276;48.392;9.950;2023-04-15T02:03:51;8.80;97.90
580;DHT22;276;48.392;9.950;2023-04-15T02:06:17;8.80;98.00
580;DHT22;276;48.392;9.950;2023-04-15T02:08:42;8.70;97.90
580;DHT22;276;48.392;9.950;2023-04-15T02:11:08;8.70;98.00
580;DHT22;276;48.392;9.950;2023-04-15T02:13:38;8.70;98.00
580;DHT22;276;48.392;9.950;2023-04-15T02:16:04;8.70;98.00
580;DHT22;276;48.392;9.950;2023-04-15T02:18:39;8.70;97.90
580;DHT22;276;48.392;9.950;2023-04-15T02:21:05;8.70;97.90
580;DHT22;276;48.392;9.950;2023-04-15T02:23:33;8.60;97.90
580;DHT22;276;48.392;9.950;2023-04-15T02:26:01;8.60;97.90
580;DHT22;276;48.392;9.950;2023-04-15T02:28:27;8.50;98.10
580;DHT22;276;48.392;9.950;2023-04-15T02:30:52;8.50;98.30
580;DHT22;276;48.392;9.950;2023-04-15T02:33:20;8.40;98.30
580;DHT22;276;48.392;9.950;2023-04-15T02:35:46;8.50;98.40
580;DHT22;276;48.392;9.950;2023-04-15T02:38:16;8.40;98.40
580;DHT22;276;48.392;9.950;2023-04-15T02:40:42;8.50;98.50
580;DHT22;276;48.392;9.950;2023-04-15T02:43:07;8.50;98.40
580;DHT22;276;48.392;9.950;2023-04-15T02:45:36;8.40;98.40
580;DHT22;276;48.392;9.950;2023-04-15T02:48:04;8.40;98.40
580;DHT22;276;48.392;9.950;2023-04-15T02:50:32;8.40;98.50
580;DHT22;276;48.392;9.950;2023-04-15T02:52:57;8.40;98.60
580;DHT22;276;48.392;9.950;2023-04-15T02:55:28;8.40;98.60
580;DHT22;276;48.392;9.950;2023-04-15T02:58:00;8.40;98.60
580;DHT22;276;48.392;9.950;2023-04-15T03:00:31;8.40;98.60
580;DHT22;276;48.392;9.950;2023-04-15T03:03:01;8.40;98.60
580;DHT22;276;48.392;9.950;2023-04-15T03:05:28;8.40;98.60
580;DHT22;276;48.392;9.950;2023-04-15T03:07:55;8.30;98.50
580;DHT22;276;48.392;9.950;2023-04-15T03:10:22;8.30;98.50
580;DHT22;276;48.392;9.950;2023-04-15T03:12:52;8.30;98.50
580;DHT22;276;48.392;9.950;2023-04-15T03:15:18;8.30;98.40
580;DHT22;276;48.392;9.950;2023-04-15T03:17:46;8.30;98.50
580;DHT22;276;48.392;9.950;2023-04-15T03:20:16;8.30;98.40
580;DHT22;276;48.392;9.950;2023-04-15T03:22:41;8.30;98.40
580;DHT22;276;48.392;9.950;2023-04-15T03:25:07;8.30;98.50
580;DHT22;276;48.392;9.950;2023-04-15T03:27:33;8.30;98.50
580;DHT22;276;48.392;9.950;2023-04-15T03:29:58;8.20;98.60
580;DHT22;276;48.392;9.950;2023-04-15T03:32:24;8.20;98.60
580;DHT22;276;48.392;9.950;2023-04-15T03:34:49;8.30;98.70
580;DHT22;276;48.392;9.950;2023-04-15T03:37:15;8.20;98.80
580;DHT22;276;48.392;9.950;2023-04-15T03:39:40;8.30;98.70
580;DHT22;276;48.392;9.950;2023-04-15T03:42:09;8.30;98.70
580;DHT22;276;48.392;9.950;2023-04-15T03:44:34;8.30;98.70
580;DHT22;276;48.392;9.950;2023-04-15T03:47:00;8.20;98.70
580;DHT22;276;48.392;9.950;2023-04-15T03:49:26;8.20;98.70
580;DHT22;276;48.392;9.950;2023-04-15T03:51:54;8.20;98.70
580;DHT22;276;48.392;9.950;2023-04-15T03:54:20;8.20;98.80
580;DHT22;276;48.392;9.950;2023-04-15T03:56:48;8.20;98.70
580;DHT22;276;48.392;9.950;2023-04-15T03:59:16;8.10;98.70
580;DHT22;276;48.392;9.950;2023-04-15T04:01:42;8.20;98.70
580;DHT22;276;48.392;9.950;2023-04-15T04:04:10;8.10;98.70
580;DHT22;276;48.392;9.950;2023-04-15T04:06:35;8.10;98.80
580;DHT22;276;48.392;9.950;2023-04-15T04:09:03;8.10;98.80
580;DHT22;276;48.392;9.950;2023-04-15T04:11:31;8.10;98.90
580;DHT22;276;48.392;9.950;2023-04-15T04:13:57;8.10;98.80
580;DHT22;276;48.392;9.950;2023-04-15T04:16:25;8.10;98.70
580;DHT22;276;48.392;9.950;2023-04-15T04:18:51;8.10;98.80
580;DHT22;276;48.392;9.950;2023-04-15T04:21:16;8.00;98.80
580;DHT22;276;48.392;9.950;2023-04-15T04:23:42;8.00;98.70
580;DHT22;276;48.392;9.950;2023-04-15T04:26:08;8.00;98.80
580;DHT22;276;48.392;9.950;2023-04-15T04:28:33;7.90;98.70
580;DHT22;276;48.392;9.950;2023-04-15T04:31:00;8.00;98.70
580;DHT22;276;48.392;9.950;2023-04-15T04:33:26;7.90;98.80
580;DHT22;276;48.392;9.950;2023-04-15T04:35:52;7.90;98.80
580;DHT22;276;48.392;9.950;2023-04-15T04:38:19;7.90;98.80
580;DHT22;276;48.392;9.950;2023-04-15T04:40:45;7.90;98.70
580;DHT22;276;48.392;9.950;2023-04-15T04:43:11;7.90;98.70
580;DHT22;276;48.392;9.950;2023-04-15T04:45:37;7.90;98.70
580;DHT22;276;48.392;9.950;2023-04-15T04:48:05;7.90;98.70
580;DHT22;276;48.392;9.950;2023-04-15T04:50:33;7.90;98.70
580;DHT22;276;48.392;9.950;2023-04-15T04:52:59;7.80;98.70
580;DHT22;276;48.392;9.950;2023-04-15T04:55:26;7.80;98.90
580;DHT22;276;48.392;9.950;2023-04-15T04:57:53;7.80;98.80
580;DHT22;276;48.392;9.950;2023-04-15T05:00:19;7.80;98.90
580;DHT22;276;48.392;9.950;2023-04-15T05:02:45;7.80;99.00
580;DHT22;276;48.392;9.950;2023-04-15T05:05:10;7.70;98.90
580;DHT22;276;48.392;9.950;2023-04-15T05:07:37;7.70;98.90
580;DHT22;276;48.392;9.950;2023-04-15T05:10:04;7.70;99.00
580;DHT22;276;48.392;9.950;2023-04-15T05:12:32;7.70;99.00
580;DHT22;276;48.392;9.950;2023-04-15T05:14:58;7.80;99.10
580;DHT22;276;48.392;9.950;2023-04-15T05:17:24;7.70;99.00
580;DHT22;276;48.392;9.950;2023-04-15T05:19:52;7.70;99.00
580;DHT22;276;48.392;9.950;2023-04-15T05:22:18;7.60;99.10
580;DHT22;276;48.392;9.950;2023-04-15T05:24:46;7.70;99.30
580;DHT22;276;48.392;9.950;2023-04-15T05:27:11;7.70;99.40
580;DHT22;276;48.392;9.950;2023-04-15T05:29:37;7.70;99.50
580;DHT22;276;48.392;9.950;2023-04-15T05:32:03;7.70;99.60
580;DHT22;276;48.392;9.950;2023-04-15T05:34:28;7.70;99.70
580;DHT22;276;48.392;9.950;2023-04-15T05:36:54;7.70;99.80
580;DHT22;276;48.392;9.950;2023-04-15T05:39:19;7.80;99.90
580;DHT22;276;48.392;9.950;2023-04-15T05:41:47;7.80;99.80
580;DHT22;276;48.392;9.950;2023-04-15T05:44:13;7.80;99.90
580;DHT22;276;48.392;9.950;2023-04-15T05:46:41;7.90;99.90
580;DHT22;276;48.392;9.950;2023-04-15T05:49:06;7.90;99.90
580;DHT22;276;48.392;9.950;2023-04-15T05:51:32;7.90;99.90
580;DHT22;276;48.392;9.950;2023-04-15T05:54:00;8.00;99.90
580;DHT22;276;48.392;9.950;2023-04-15T05:56:28;8.10;99.90
580;DHT22;276;48.392;9.950;2023-04-15T05:58:58;8.20;99.90
580;DHT22;276;48.392;9.950;2023-04-15T06:01:24;8.20;99.90
580;DHT22;276;48.392;9.950;2023-04-15T06:03:50;8.30;99.90
580;DHT22;276;48.392;9.950;2023-04-15T06:06:16;8.40;99.80
580;DHT22;276;48.392;9.950;2023-04-15T06:08:41;8.50;99.70
580;DHT22;276;48.392;9.950;2023-04-15T06:11:09;8.50;99.60
580;DHT22;276;48.392;9.950;2023-04-15T06:13:37;8.60;99.60
580;DHT22;276;48.392;9.950;2023-04-15T06:16:03;8.60;99.60
580;DHT22;276;48.392;9.950;2023-04-15T06:18:31;8.70;99.40
580;DHT22;276;48.392;9.950;2023-04-15T06:20:58;8.70;99.60
580;DHT22;276;48.392;9.950;2023-04-15T06:23:27;8.80;99.30
580;DHT22;276;48.392;9.950;2023-04-15T06:25:52;8.80;99.20
580;DHT22;276;48.392;9.950;2023-04-15T06:28:20;8.90;99.20
580;DHT22;276;48.392;9.950;2023-04-15T06:30:45;8.90;99.10
580;DHT22;276;48.392;9.950;2023-04-15T06:33:13;9.00;99.10
580;DHT22;276;48.392;9.950;2023-04-15T06:35:39;9.00;99.20
580;DHT22;276;48.392;9.950;2023-04-15T06:38:07;9.10;99.20
580;DHT22;276;48.392;9.950;2023-04-15T06:40:36;9.20;99.20
580;DHT22;276;48.392;9.950;2023-04-15T06:43:01;9.20;99.10
580;DHT22;276;48.392;9.950;2023-04-15T06:45:29;9.30;99.20
580;DHT22;276;48.392;9.950;2023-04-15T06:47:55;9.40;99.20
580;DHT22;276;48.392;9.950;2023-04-15T06:50:21;9.40;99.20
580;DHT22;276;48.392;9.950;2023-04-15T06:52:47;9.50;99.30
580;DHT22;276;48.392;9.950;2023-04-15T06:55:15;9.50;99.40
580;DHT22;276;48.392;9.950;2023-04-15T06:57:40;9.60;99.30
580;DHT22;276;48.392;9.950;2023-04-15T07:00:06;9.60;99.20
580;DHT22;276;48.392;9.950;2023-04-15T07:02:33;9.70;99.30
580;DHT22;276;48.392;9.950;2023-04-15T07:05:01;9.80;99.30
580;DHT22;276;48.392;9.950;2023-04-15T07:07:26;9.90;99.40
580;DHT22;276;48.392;9.950;2023-04-15T07:09:52;9.90;99.40
580;DHT22;276;48.392;9.950;2023-04-15T07:12:20;10.00;98.90
580;DHT22;276;48.392;9.950;2023-04-15T07:14:46;10.10;98.90
580;DHT22;276;48.392;9.950;2023-04-15T07:17:11;10.20;98.90
580;DHT22;276;48.392;9.950;2023-04-15T07:19:37;10.30;99.00
580;DHT22;276;48.392;9.950;2023-04-15T07:22:03;10.40;99.00
580;DHT22;276;48.392;9.950;2023-04-15T07:24:29;10.50;98.90
580;DHT22;276;48.392;9.950;2023-04-15T07:26:57;10.60;98.80
580;DHT22;276;48.392;9.950;2023-04-15T07:29:25;10.70;98.80
580;DHT22;276;48.392;9.950;2023-04-15T07:31:51;10.80;98.70
580;DHT22;276;48.392;9.950;2023-04-15T07:34:20;10.90;98.50
580;DHT22;276;48.392;9.950;2023-04-15T07:36:49;11.10;98.80
580;DHT22;276;48.392;9.950;2023-04-15T07:39:16;11.20;98.50
580;DHT22;276;48.392;9.950;2023-04-15T07:41:42;11.40;98.50
580;DHT22;276;48.392;9.950;2023-04-15T07:44:10;11.60;98.50
580;DHT22;276;48.392;9.950;2023-04-15T07:46:36;11.70;98.30
580;DHT22;276;48.392;9.950;2023-04-15T07:49:02;11.80;97.90
580;DHT22;276;48.392;9.950;2023-04-15T07:51:28;11.90;97.80
580;DHT22;276;48.392;9.950;2023-04-15T07:53:55;12.10;97.80
580;DHT22;276;48.392;9.950;2023-04-15T07:56:23;12.20;97.80
580;DHT22;276;48.392;9.950;2023-04-15T07:58:56;12.30;97.60
580;DHT22;276;48.392;9.950;2023-04-15T08:01:21;12.50;97.50
580;DHT22;276;48.392;9.950;2023-04-15T08:03:47;12.70;97.60
580;DHT22;276;48.392;9.950;2023-04-15T08:06:14;12.80;97.50
580;DHT22;276;48.392;9.950;2023-04-15T08:08:39;13.00;97.30
580;DHT22;276;48.392;9.950;2023-04-15T08:11:06;13.10;97.20
580;DHT22;276;48.392;9.950;2023-04-15T08:13:31;13.30;97.30
580;DHT22;276;48.392;9.950;2023-04-15T08:16:32;13.30;96.70
580;DHT22;276;48.392;9.950;2023-04-15T08:18:58;13.30;96.70
580;DHT22;276;48.392;9.950;2023-04-15T08:21:28;13.30;96.60
580;DHT22;276;48.392;9.950;2023-04-15T08:23:55;13.40;96.90
580;DHT22;276;48.392;9.950;2023-04-15T08:26:23;13.50;96.80
580;DHT22;276;48.392;9.950;2023-04-15T08:28:49;13.40;96.30
580;DHT22;276;48.392;9.950;2023-04-15T08:31:15;13.30;96.40
580;DHT22;276;48.392;9.950;2023-04-15T08:33:41;13.30;96.60
580;DHT22;276;48.392;9.950;2023-04-15T08:36:07;13.30;96.40
580;DHT22;276;48.392;9.950;2023-04-15T08:38:33;13.40;96.80
580;DHT22;276;48.392;9.950;2023-04-15T08:41:06;13.30;96.40
580;DHT22;276;48.392;9.950;2023-04-15T08:43:33;13.20;96.60
580;DHT22;276;48.392;9.950;2023-04-15T08:46:03;13.00;96.70
580;DHT22;276;48.392;9.950;2023-04-15T08:48:34;12.70;96.90
580;DHT22;276;48.392;9.950;2023-04-15T08:51:05;12.60;97.30
580;DHT22;276;48.392;9.950;2023-04-15T08:53:34;12.50;97.50
580;DHT22;276;48.392;9.950;2023-04-15T08:56:03;12.60;97.80
580;DHT22;276;48.392;9.950;2023-04-15T08:58:31;12.70;97.80
580;DHT22;276;48.392;9.950;2023-04-15T09:01:00;12.80;97.70
580;DHT22;276;48.392;9.950;2023-04-15T09:03:26;12.80;97.30
580;DHT22;276;48.392;9.950;2023-04-15T09:05:56;12.80;97.20
580;DHT22;276;48.392;9.950;2023-04-15T09:08:22;13.00;97.50
580;DHT22;276;48.392;9.950;2023-04-15T09:10:47;13.10;97.20
580;DHT22;276;48.392;9.950;2023-04-15T09:13:14;13.30;97.10
580;DHT22;276;48.392;9.950;2023-04-15T09:15:39;13.50;96.80
580;DHT22;276;48.392;9.950;2023-04-15T09:18:08;13.70;96.70
580;DHT22;276;48.392;9.950;2023-04-15T09:20:38;13.90;96.60
580;DHT22;276;48.392;9.950;2023-04-15T09:23:16;14.10;96.40
580;DHT22;276;48.392;9.950;2023-04-15T09:25:44;14.30;96.00
580;DHT22;276;48.392;9.950;2023-04-15T09:28:10;14.50;95.90
580;DHT22;276;48.392;9.950;2023-04-15T09:30:38;14.70;95.70
580;DHT22;276;48.392;9.950;2023-04-15T09:33:07;14.90;95.30
580;DHT22;276;48.392;9.950;2023-04-15T09:35:37;15.20;94.60
580;DHT22;276;48.392;9.950;2023-04-15T09:38:07;15.40;93.70
580;DHT22;276;48.392;9.950;2023-04-15T09:40:42;15.70;92.40
580;DHT22;276;48.392;9.950;2023-04-15T09:43:09;15.90;90.80
580;DHT22;276;48.392;9.950;2023-04-15T09:45:47;16.00;89.00
580;DHT22;276;48.392;9.950;2023-04-15T09:48:23;16.30;87.60
580;DHT22;276;48.392;9.950;2023-04-15T09:50:51;16.50;84.60
580;DHT22;276;48.392;9.950;2023-04-15T09:53:22;16.60;83.00
580;DHT22;276;48.392;9.950;2023-04-15T09:55:50;16.70;82.00
580;DHT22;276;48.392;9.950;2023-04-15T09:58:26;16.80;78.80
580;DHT22;276;48.392;9.950;2023-04-15T10:00:56;16.80;77.80
580;DHT22;276;48.392;9.950;2023-04-15T10:03:25;16.80;77.20
580;DHT22;276;48.392;9.950;2023-04-15T10:05:54;16.90;77.30
580;DHT22;276;48.392;9.950;2023-04-15T10:08:25;16.90;76.10
580;DHT22;276;48.392;9.950;2023-04-15T10:10:52;16.90;75.00
580;DHT22;276;48.392;9.950;2023-04-15T10:13:23;16.80;72.50
580;DHT22;276;48.392;9.950;2023-04-15T10:16:09;16.80;72.00
580;DHT22;276;48.392;9.950;2023-04-15T10:18:37;16.70;71.40
580;DHT22;276;48.392;9.950;2023-04-15T10:21:06;16.70;71.70
580;DHT22;276;48.392;9.950;2023-04-15T10:23:33;16.60;72.50
580;DHT22;276;48.392;9.950;2023-04-15T10:25:59;16.60;73.30
580;DHT22;276;48.392;9.950;2023-04-15T10:28:25;16.50;74.40
580;DHT22;276;48.392;9.950;2023-04-15T10:30:54;16.30;74.00
580;DHT22;276;48.392;9.950;2023-04-15T10:33:25;16.20;73.80
580;DHT22;276;48.392;9.950;2023-04-15T10:35:53;16.10;74.30
580;DHT22;276;48.392;9.950;2023-04-15T10:41:20;16.00;76.10
580;DHT22;276;48.392;9.950;2023-04-15T10:44:16;16.00;76.20
580;DHT22;276;48.392;9.950;2023-04-15T10:46:46;16.00;75.80
580;DHT22;276;48.392;9.950;2023-04-15T10:49:14;16.00;75.60
580;DHT22;276;48.392;9.950;2023-04-15T10:51:44;16.10;74.50
580;DHT22;276;48.392;9.950;2023-04-15T10:57:14;16.30;73.50
580;DHT22;276;48.392;9.950;2023-04-15T11:02:44;16.50;74.40
580;DHT22;276;48.392;9.950;2023-04-15T11:05:11;16.70;74.00
580;DHT22;276;48.392;9.950;2023-04-15T11:13:02;16.90;72.10
580;DHT22;276;48.392;9.950;2023-04-15T11:18:07;17.00;72.90
580;DHT22;276;48.392;9.950;2023-04-15T11:20:48;17.00;72.30
580;DHT22;276;48.392;9.950;2023-04-15T11:26:08;17.10;72.20
580;DHT22;276;48.392;9.950;2023-04-15T11:28:40;17.10;71.90
580;DHT22;276;48.392;9.950;2023-04-15T11:33:37;17.10;71.80
580;DHT22;276;48.392;9.950;2023-04-15T11:36:06;17.10;71.60
580;DHT22;276;48.392;9.950;2023-04-15T11:38:33;17.20;72.00
580;DHT22;276;48.392;9.950;2023-04-15T11:41:02;17.20;70.90
580;DHT22;276;48.392;9.950;2023-04-15T11:43:31;17.20;70.00
580;DHT22;276;48.392;9.950;2023-04-15T11:45:58;17.10;70.00
580;DHT22;276;48.392;9.950;2023-04-15T11:48:30;17.00;69.70
580;DHT22;276;48.392;9.950;2023-04-15T11:51:06;16.90;70.90
580;DHT22;276;48.392;9.950;2023-04-15T11:53:47;16.80;74.10
580;DHT22;276;48.392;9.950;2023-04-15T11:56:24;16.60;76.90
580;DHT22;276;48.392;9.950;2023-04-15T11:58:59;16.50;80.20
580;DHT22;276;48.392;9.950;2023-04-15T12:01:54;16.40;81.80
580;DHT22;276;48.392;9.950;2023-04-15T12:04:20;16.30;81.00
580;DHT22;276;48.392;9.950;2023-04-15T12:06:48;16.20;80.50
580;DHT22;276;48.392;9.950;2023-04-15T12:09:17;16.10;78.60
580;DHT22;276;48.392;9.950;2023-04-15T12:11:49;16.10;77.80
580;DHT22;276;48.392;9.950;2023-04-15T12:16:59;16.00;77.30
580;DHT22;276;48.392;9.950;2023-04-15T12:22:02;16.10;77.40
580;DHT22;276;48.392;9.950;2023-04-15T12:24:32;16.10;78.40
580;DHT22;276;48.392;9.950;2023-04-15T12:27:06;16.00;79.50
580;DHT22;276;48.392;9.950;2023-04-15T12:29:34;15.90;79.90
580;DHT22;276;48.392;9.950;2023-04-15T12:32:13;15.80;80.40
580;DHT22;276;48.392;9.950;2023-04-15T12:34:59;15.70;81.00
580;DHT22;276;48.392;9.950;2023-04-15T12:37:25;15.60;81.10
580;DHT22;276;48.392;9.950;2023-04-15T12:39:53;15.40;80.60
580;DHT22;276;48.392;9.950;2023-04-15T12:42:19;15.30;81.40
580;DHT22;276;48.392;9.950;2023-04-15T12:44:45;15.20;82.20
580;DHT22;276;48.392;9.950;2023-04-15T12:47:14;15.20;82.50
580;DHT22;276;48.392;9.950;2023-04-15T12:49:44;15.20;82.60
580;DHT22;276;48.392;9.950;2023-04-15T12:52:10;15.20;83.40
580;DHT22;276;48.392;9.950;2023-04-15T12:54:36;15.20;83.40
580;DHT22;276;48.392;9.950;2023-04-15T12:57:02;15.30;83.50
580;DHT22;276;48.392;9.950;2023-04-15T12:59:27;15.30;83.40
580;DHT22;276;48.392;9.950;2023-04-15T13:01:53;15.30;83.30
580;DHT22;276;48.392;9.950;2023-04-15T13:04:23;15.30;82.70
580;DHT22;276;48.392;9.950;2023-04-15T13:06:49;15.30;82.60
580;DHT22;276;48.392;9.950;2023-04-15T13:09:20;15.30;82.50
580;DHT22;276;48.392;9.950;2023-04-15T13:11:48;15.40;82.40
580;DHT22;276;48.392;9.950;2023-04-15T13:14:14;15.40;82.30
580;DHT22;276;48.392;9.950;2023-04-15T13:16:42;15.40;82.00
580;DHT22;276;48.392;9.950;2023-04-15T13:19:10;15.50;82.00
580;DHT22;276;48.392;9.950;2023-04-15T13:21:40;15.50;82.00
580;DHT22;276;48.392;9.950;2023-04-15T13:24:06;15.50;81.50
580;DHT22;276;48.392;9.950;2023-04-15T13:26:36;15.50;81.00
580;DHT22;276;48.392;9.950;2023-04-15T13:29:04;15.40;81.00
580;DHT22;276;48.392;9.950;2023-04-15T13:31:30;15.40;81.20
580;DHT22;276;48.392;9.950;2023-04-15T13:33:56;15.40;82.10
580;DHT22;276;48.392;9.950;2023-04-15T13:36:24;15.30;83.00
580;DHT22;276;48.392;9.950;2023-04-15T13:38:50;15.30;84.10
580;DHT22;276;48.392;9.950;2023-04-15T13:41:16;15.20;84.80
580;DHT22;276;48.392;9.950;2023-04-15T13:43:41;15.10;83.00
580;DHT22;276;48.392;9.950;2023-04-15T13:46:09;15.00;83.20
580;DHT22;276;48.392;9.950;2023-04-15T13:48:35;14.90;84.90
580;DHT22;276;48.392;9.950;2023-04-15T13:51:03;14.80;86.80
580;DHT22;276;48.392;9.950;2023-04-15T13:53:29;14.70;90.40
580;DHT22;276;48.392;9.950;2023-04-15T13:55:55;14.60;91.20
580;DHT22;276;48.392;9.950;2023-04-15T13:58:23;14.50;92.00
580;DHT22;276;48.392;9.950;2023-04-15T14:00:48;14.40;92.40
580;DHT22;276;48.392;9.950;2023-04-15T14:03:16;14.30;92.80
580;DHT22;276;48.392;9.950;2023-04-15T14:05:42;14.20;93.00
580;DHT22;276;48.392;9.950;2023-04-15T14:08:10;14.20;93.10
580;DHT22;276;48.392;9.950;2023-04-15T14:10:36;14.20;93.30
580;DHT22;276;48.392;9.950;2023-04-15T14:13:08;14.10;93.50
580;DHT22;276;48.392;9.950;2023-04-15T14:15:34;14.10;94.00
580;DHT22;276;48.392;9.950;2023-04-15T14:17:59;13.90;94.10
580;DHT22;276;48.392;9.950;2023-04-15T14:20:26;13.90;94.40
580;DHT22;276;48.392;9.950;2023-04-15T14:22:51;13.90;94.80
580;DHT22;276;48.392;9.950;2023-04-15T14:25:19;13.80;95.00
580;DHT22;276;48.392;9.950;2023-04-15T14:27:45;13.70;95.80
580;DHT22;276;48.392;9.950;2023-04-15T14:30:11;13.60;96.40
580;DHT22;276;48.392;9.950;2023-04-15T14:32:39;13.50;96.80
580;DHT22;276;48.392;9.950;2023-04-15T14:35:09;13.40;96.70
580;DHT22;276;48.392;9.950;2023-04-15T14:37:35;13.30;96.90
580;DHT22;276;48.392;9.950;2023-04-15T14:40:00;13.20;97.00
580;DHT22;276;48.392;9.950;2023-04-15T14:42:26;13.20;97.00
580;DHT22;276;48.392;9.950;2023-04-15T14:44:52;13.10;96.90
580;DHT22;276;48.392;9.950;2023-04-15T14:47:17;13.10;96.80
580;DHT22;276;48.392;9.950;2023-04-15T14:49:43;13.10;97.00
580;DHT22;276;48.392;9.950;2023-04-15T14:52:09;13.00;96.70
580;DHT22;276;48.392;9.950;2023-04-15T14:54:34;13.00;96.50
580;DHT22;276;48.392;9.950;2023-04-15T14:57:02;13.00;96.40
580;DHT22;276;48.392;9.950;2023-04-15T14:59:28;13.00;96.40
580;DHT22;276;48.392;9.950;2023-04-15T15:01:53;13.00;96.40
580;DHT22;276;48.392;9.950;2023-04-15T15:04:21;13.00;96.20
580;DHT22;276;48.392;9.950;2023-04-15T15:06:49;13.00;96.20
580;DHT22;276;48.392;9.950;2023-04-15T15:09:17;13.10;96.10
580;DHT22;276;48.392;9.950;2023-04-15T15:11:44;13.10;96.00
580;DHT22;276;48.392;9.950;2023-04-15T15:14:14;13.10;96.00
580;DHT22;276;48.392;9.950;2023-04-15T15:16:42;13.10;95.60
580;DHT22;276;48.392;9.950;2023-04-15T15:19:12;13.10;95.20
580;DHT22;276;48.392;9.950;2023-04-15T15:21:38;13.10;94.50
580;DHT22;276;48.392;9.950;2023-04-15T15:24:04;13.00;94.00
580;DHT22;276;48.392;9.950;2023-04-15T15:26:32;13.00;93.90
580;DHT22;276;48.392;9.950;2023-04-15T15:28:57;13.00;93.80
580;DHT22;276;48.392;9.950;2023-04-15T15:31:23;13.10;93.90
580;DHT22;276;48.392;9.950;2023-04-15T15:33:53;13.10;93.70
580;DHT22;276;48.392;9.950;2023-04-15T15:36:18;13.10;93.50
580;DHT22;276;48.392;9.950;2023-04-15T15:38:44;13.10;93.40
580;DHT22;276;48.392;9.950;2023-04-15T15:41:14;13.10;92.90
580;DHT22;276;48.392;9.950;2023-04-15T15:43:40;13.10;93.00
580;DHT22;276;48.392;9.950;2023-04-15T15:46:06;13.20;92.80
580;DHT22;276;48.392;9.950;2023-04-15T15:48:34;13.10;92.10
580;DHT22;276;48.392;9.950;2023-04-15T15:51:00;13.10;92.00
580;DHT22;276;48.392;9.950;2023-04-15T15:53:26;13.10;91.80
580;DHT22;276;48.392;9.950;2023-04-15T15:55:56;13.10;91.50
580;DHT22;276;48.392;9.950;2023-04-15T15:58:22;13.10;91.20
580;DHT22;276;48.392;9.950;2023-04-15T16:00:50;13.10;91.00
580;DHT22;276;48.392;9.950;2023-04-15T16:03:18;13.10;91.00
580;DHT22;276;48.392;9.950;2023-04-15T16:05:43;13.10;90.90
580;DHT22;276;48.392;9.950;2023-04-15T16:08:09;13.10;90.60
580;DHT22;276;48.392;9.950;2023-04-15T16:10:37;13.10;90.80
580;DHT22;276;48.392;9.950;2023-04-15T16:13:05;13.20;90.80
580;DHT22;276;48.392;9.950;2023-04-15T16:15:35;13.20;90.70
580;DHT22;276;48.392;9.950;2023-04-15T16:18:03;13.20;90.70
580;DHT22;276;48.392;9.950;2023-04-15T16:20:29;13.20;90.60
580;DHT22;276;48.392;9.950;2023-04-15T16:22:58;13.20;90.40
580;DHT22;276;48.392;9.950;2023-04-15T16:25:26;13.20;90.20
580;DHT22;276;48.392;9.950;2023-04-15T16:27:52;13.20;89.90
580;DHT22;276;48.392;9.950;2023-04-15T16:30:18;13.20;90.00
580;DHT22;276;48.392;9.950;2023-04-15T16:32:45;13.20;89.70
580;DHT22;276;48.392;9.950;2023-04-15T16:35:13;13.20;89.50
580;DHT22;276;48.392;9.950;2023-04-15T16:37:44;13.20;89.10
580;DHT22;276;48.392;9.950;2023-04-15T16:40:10;13.20;89.10
580;DHT22;276;48.392;9.950;2023-04-15T16:42:36;13.10;88.70
580;DHT22;276;48.392;9.950;2023-04-15T16:45:02;13.10;88.20
580;DHT22;276;48.392;9.950;2023-04-15T16:47:32;13.10;88.10
580;DHT22;276;48.392;9.950;2023-04-15T16:49:57;13.00;88.30
580;DHT22;276;48.392;9.950;2023-04-15T16:52:23;13.00;88.50
580;DHT22;276;48.392;9.950;2023-04-15T16:54:51;13.00;88.70
580;DHT22;276;48.392;9.950;2023-04-15T16:57:19;13.00;89.20
580;DHT22;276;48.392;9.950;2023-04-15T16:59:47;13.00;88.90
580;DHT22;276;48.392;9.950;2023-04-15T17:02:12;13.00;88.90
580;DHT22;276;48.392;9.950;2023-04-15T17:04:41;12.90;89.20
580;DHT22;276;48.392;9.950;2023-04-15T17:07:06;12.90;89.60
580;DHT22;276;48.392;9.950;2023-04-15T17:09:37;12.90;89.50
580;DHT22;276;48.392;9.950;2023-04-15T17:12:03;12.90;89.80